Terminal Aerodrome Forecast
Issued by NWS

Home | Current Version | Previous Version | Text Only | Print | Product List | Glossary On
Versions: 1 2 3 4 5 6 7 8 9 10 11 12 13 14 15 16 17
000
FTUS46 KSGX 211700
TAFSNA
TAF
KSNA 211728Z 2118/2218 22009KT P6SM FEW100
     FM220100 VRB05KT P6SM FEW012
     FM220300 VRB04KT P6SM SCT012
     FM220600 VRB03KT P6SM BKN015
     FM221700 VRB05KT P6SM FEW015=

USA.gov is the U.S. government's official web portal to all federal, state and local government web resources and services.